^^
Meteo Knjazevac Station Historical Data
Daily Summary for September 30, 2021 Units:  Metric    English   Both
Daily Weekly Monthly Yearly Custom
  High: Low: Average:
Temperature: 5.8 °C 3.2 °C 4.3 °C
Dew Point: 5.2 °C 3.1 °C 4.1 °C
Humidity: 99% 95% 98%
Wind Speed: 3.2km/h 0km/h 1.4km/h
Wind Gust: 12.9km/h - -
Wind- - South
Pressure: 1004.6 hPa 1003.3 hPa -
Precipitation: 8.38 mm    
Historical Graphs
 
 
Tabular Data for September 30, 2021
Time Temperature Dew Point Pressure Wind Wind Speed Wind Gust Humidity Rainfall Rate (Hourly) solar Conditions
00:00 5.8 °C 5.2 °C 1003.9 hPa Calm   4.8 km/h 96% 0.25 mm 0 W/m2
00:10 5.7 °C 5.1 °C 1003.9 hPa SSE 1.6 km/h 4.8 km/h 96% 0.25 mm 0 W/m2
00:20 5.7 °C 4.9 °C 1003.9 hPa SE 1.6 km/h 4.8 km/h 95% 0 mm 0 W/m2
00:30 5.6 °C 5 °C 1003.9 hPa SSW 1.6 km/h 4.8 km/h 96% 0 mm 0 W/m2
00:40 5.5 °C 4.9 °C 1003.6 hPa Calm   3.2 km/h 96% 0 mm 0 W/m2
00:50 5.5 °C 4.9 °C 1003.6 hPa Calm   1.6 km/h 96% 0 mm 0 W/m2
01:00 5.4 °C 4.8 °C 1003.6 hPa Calm   3.2 km/h 96% 0 mm 0 W/m2
01:10 5.3 °C 5 °C 1003.6 hPa Calm   3.2 km/h 98% 0.25 mm 0 W/m2
01:20 5.2 °C 4.9 °C 1003.3 hPa Calm   4.8 km/h 98% 0.25 mm 0 W/m2
01:30 5.2 °C 4.9 °C 1003.6 hPa WNW 1.6 km/h 6.4 km/h 98% 0.51 mm 0 W/m2
01:40 5.1 °C 4.8 °C 1003.3 hPa Calm   4.8 km/h 98% 0.76 mm 0 W/m2
01:50 5.1 °C 4.9 °C 1003.3 hPa SSW 1.6 km/h 3.2 km/h 99% 0.51 mm 0 W/m2
02:00 5 °C 4.8 °C 1003.3 hPa SW 3.2 km/h 4.8 km/h 99% 0.25 mm 0 W/m2
02:10 4.9 °C 4.8 °C 1003.3 hPa WSW 3.2 km/h 9.7 km/h 99% 0.25 mm 0 W/m2
02:20 4.8 °C 4.7 °C 1003.3 hPa West 3.2 km/h 9.7 km/h 99% 0.25 mm 0 W/m2
02:30 4.7 °C 4.6 °C 1003.3 hPa West 3.2 km/h 9.7 km/h 99% 0.25 mm 0 W/m2
02:40 4.6 °C 4.4 °C 1003.6 hPa West 3.2 km/h 11.3 km/h 99% 0.25 mm 0 W/m2
02:50 4.6 °C 4.4 °C 1003.6 hPa Calm   8 km/h 99% 0.25 mm 0 W/m2
03:00 4.5 °C 4.3 °C 1003.6 hPa SSW 1.6 km/h 3.2 km/h 99% 0.51 mm 0 W/m2
03:10 4.5 °C 4.3 °C 1003.6 hPa SSW 3.2 km/h 8 km/h 99% 0.51 mm 0 W/m2
03:20 4.5 °C 4.3 °C 1003.6 hPa SSW 1.6 km/h 8 km/h 99% 0.51 mm 0 W/m2
03:30 4.3 °C 4.2 °C 1003.6 hPa SSW 3.2 km/h 12.9 km/h 99% 0.51 mm 0 W/m2
03:40 4.2 °C 4.1 °C 1003.6 hPa SSW 1.6 km/h 9.7 km/h 99% 0.25 mm 0 W/m2
03:50 4.1 °C 3.9 °C 1003.6 hPa SSW 1.6 km/h 4.8 km/h 99% 0.25 mm 0 W/m2
04:00 4 °C 3.7 °C 1003.6 hPa South 1.6 km/h 6.4 km/h 98% 0 mm 0 W/m2
04:10 3.9 °C 3.8 °C 1003.6 hPa South 1.6 km/h 4.8 km/h 99% 0 mm 0 W/m2
04:20 3.8 °C 3.7 °C 1003.6 hPa South 1.6 km/h 6.4 km/h 99% 0.25 mm 0 W/m2
04:30 3.7 °C 3.6 °C 1003.6 hPa SSW 1.6 km/h 6.4 km/h 99% 0.25 mm 0 W/m2
04:40 3.6 °C 3.4 °C 1003.6 hPa Calm   4.8 km/h 99% 0.25 mm 0 W/m2
04:50 3.6 °C 3.4 °C 1003.6 hPa Calm   4.8 km/h 99% 0.25 mm 0 W/m2
05:00 3.5 °C 3.3 °C 1003.6 hPa SSE 3.2 km/h 6.4 km/h 99% 0.25 mm 0 W/m2
05:10 3.4 °C 3.3 °C 1003.6 hPa SE 1.6 km/h 8 km/h 99% 0.25 mm 0 W/m2
05:20 3.4 °C 3.3 °C 1003.6 hPa Calm   3.2 km/h 99% 0 mm 0 W/m2
05:30 3.4 °C 3.3 °C 1003.6 hPa SSE 1.6 km/h 6.4 km/h 99% 0 mm 0 W/m2
05:40 3.3 °C 3.2 °C 1003.9 hPa SE 1.6 km/h 3.2 km/h 99% 0 mm 0 W/m2
05:50 3.3 °C 3.2 °C 1003.9 hPa Calm   4.8 km/h 99% 0 mm 0 W/m2
06:00 3.3 °C 3.2 °C 1003.9 hPa Calm   3.2 km/h 99% 0 mm 0 W/m2
06:10 3.3 °C 3.2 °C 1003.9 hPa Calm   4.8 km/h 99% 0 mm 0 W/m2
06:20 3.3 °C 3.2 °C 1004.3 hPa SSE 1.6 km/h 8 km/h 99% 0 mm 0 W/m2
06:30 3.2 °C 3.1 °C 1004.3 hPa SSE 3.2 km/h 9.7 km/h 99% 0 mm 0 W/m2
06:40 3.3 °C 3.2 °C 1004.3 hPa SE 3.2 km/h 8 km/h 99% 0 mm 0 W/m2
06:50 3.3 °C 3.2 °C 1004.6 hPa East 3.2 km/h 8 km/h 99% 0 mm 0 W/m2
Knjazevac, Serbia
Compliments of Weather Underground - 2 mb